Time;durP1;ratioP1;P1;durP2;ratioP2;P2;SDS_P1;SDS_P2;PMS_P1;PMS_P2;Temp;Humidity;BMP_temperature;BMP_pressure;BME280_temperature;BME280_humidity;BME280_pressure;Samples;Min_cycle;Max_cycle;Signal;HPM_P1;HPM_P2
2023/11/03 00:00:40;;;;;;;7.65;2.63;;;11.90;99.90;;;;;;2107453;28;20072;-75
2023/11/03 00:01:47;;;;;;;8.27;2.15;;;11.90;99.90;;;;;;2108757;28;20028;-76
2023/11/03 00:02:47;;;;;;;6.75;2.13;;;11.90;99.90;;;;;;2103684;28;20087;-76
2023/11/03 00:03:48;;;;;;;9.13;2.45;;;11.90;99.90;;;;;;2102184;28;20078;-76
2023/11/03 00:04:50;;;;;;;5.65;1.83;;;11.90;99.90;;;;;;2108797;28;20028;-76
2023/11/03 00:05:51;;;;;;;9.32;2.20;;;11.80;99.90;;;;;;2101696;28;20031;-76
2023/11/03 00:06:53;;;;;;;8.70;2.28;;;11.80;99.90;;;;;;2100662;28;22094;-76
2023/11/03 00:07:54;;;;;;;6.93;1.75;;;11.80;99.90;;;;;;2106194;28;20016;-75
2023/11/03 00:08:55;;;;;;;7.63;2.40;;;11.80;99.90;;;;;;2107235;28;20028;-76
2023/11/03 00:09:55;;;;;;;10.73;2.38;;;11.80;99.90;;;;;;2100266;28;20406;-76
2023/11/03 00:10:58;;;;;;;6.88;1.85;;;11.80;99.90;;;;;;2092169;28;20028;-75
2023/11/03 00:11:59;;;;;;;6.47;2.13;;;11.80;99.90;;;;;;2102644;28;20070;-75
2023/11/03 00:13:02;;;;;;;8.35;2.35;;;11.80;99.90;;;;;;2108955;28;20069;-75
2023/11/03 00:14:05;;;;;;;6.53;1.88;;;11.80;99.90;;;;;;2107135;28;20513;-76
2023/11/03 00:15:09;;;;;;;8.63;2.05;;;11.80;99.90;;;;;;2102119;28;20028;-76
2023/11/03 00:16:10;;;;;;;10.88;2.35;;;11.80;99.90;;;;;;2102284;28;20047;-76
2023/11/03 00:17:13;;;;;;;7.78;2.17;;;11.80;99.90;;;;;;2106166;28;20066;-74
2023/11/03 00:18:13;;;;;;;5.35;1.88;;;11.80;99.90;;;;;;2108790;28;20023;-76
2023/11/03 00:19:14;;;;;;;5.75;1.83;;;11.80;99.90;;;;;;2108853;28;20047;-76
2023/11/03 00:20:15;;;;;;;10.10;2.13;;;11.80;99.90;;;;;;2108129;28;20016;-76
2023/11/03 00:21:16;;;;;;;8.43;2.75;;;11.90;99.90;;;;;;2099841;28;20032;-76
2023/11/03 00:22:18;;;;;;;7.47;2.28;;;11.90;99.90;;;;;;2102687;28;20020;-75
2023/11/03 00:23:18;;;;;;;7.90;2.35;;;11.90;99.90;;;;;;2107714;28;20435;-75
2023/11/03 00:24:19;;;;;;;6.55;1.70;;;11.90;99.90;;;;;;2107722;28;20054;-75
2023/11/03 00:25:20;;;;;;;9.73;2.95;;;11.90;99.90;;;;;;2108925;28;20027;-76
2023/11/03 00:26:20;;;;;;;6.00;2.25;;;11.90;99.90;;;;;;2107267;28;20024;-75
2023/11/03 00:27:21;;;;;;;9.07;2.55;;;11.90;99.90;;;;;;2099532;28;20471;-76
2023/11/03 00:28:23;;;;;;;10.48;3.10;;;11.90;99.90;;;;;;2098967;28;20047;-76
2023/11/03 00:29:24;;;;;;;7.93;2.38;;;11.90;99.90;;;;;;2108020;28;20132;-76
2023/11/03 00:30:25;;;;;;;8.57;1.85;;;11.90;99.90;;;;;;2104918;28;20469;-75
2023/11/03 00:31:26;;;;;;;5.75;1.88;;;11.90;99.90;;;;;;2103997;28;20039;-76
2023/11/03 00:32:26;;;;;;;9.32;1.90;;;11.90;99.90;;;;;;2105322;28;20107;-76
2023/11/03 00:33:27;;;;;;;9.18;2.63;;;11.90;99.90;;;;;;2098979;28;20030;-75
2023/11/03 00:34:27;;;;;;;9.02;2.15;;;11.90;99.90;;;;;;2097355;28;20111;-76
2023/11/03 00:35:28;;;;;;;6.75;2.20;;;11.90;99.90;;;;;;2106403;28;20143;-76
2023/11/03 00:36:29;;;;;;;6.85;2.00;;;11.90;99.90;;;;;;2108017;28;20172;-75
2023/11/03 00:37:29;;;;;;;6.70;2.28;;;11.90;99.90;;;;;;2099891;28;20027;-75
2023/11/03 00:38:30;;;;;;;9.00;1.98;;;11.90;99.90;;;;;;2099965;28;20082;-76
2023/11/03 00:39:30;;;;;;;6.03;1.83;;;11.90;99.90;;;;;;2102462;28;20062;-76
2023/11/03 00:40:31;;;;;;;3.90;1.50;;;11.90;99.90;;;;;;2102575;28;20521;-76
2023/11/03 00:41:31;;;;;;;6.03;2.10;;;11.80;99.90;;;;;;2100865;28;20394;-76
2023/11/03 00:42:32;;;;;;;5.35;1.38;;;11.80;99.90;;;;;;2091870;28;20033;-76
2023/11/03 00:43:32;;;;;;;7.72;2.13;;;11.80;99.90;;;;;;2100470;28;20049;-76
2023/11/03 00:44:34;;;;;;;7.43;1.60;;;11.80;99.90;;;;;;2109515;28;20028;-75
2023/11/03 00:45:34;;;;;;;7.78;1.52;;;11.80;99.90;;;;;;2105361;28;20567;-75
2023/11/03 00:46:38;;;;;;;7.22;1.63;;;11.80;99.90;;;;;;2106526;28;20040;-75
2023/11/03 00:47:39;;;;;;;5.35;1.70;;;11.80;99.90;;;;;;2099140;28;20050;-76
2023/11/03 00:48:44;;;;;;;3.90;1.38;;;11.80;99.90;;;;;;2099813;28;20028;-76
2023/11/03 00:49:45;;;;;;;5.85;1.30;;;11.70;99.90;;;;;;2097713;28;20032;-76
2023/11/03 00:50:46;;;;;;;3.65;0.80;;;11.70;99.90;;;;;;2095890;28;20036;-76
2023/11/03 00:51:46;;;;;;;4.57;1.40;;;11.70;99.90;;;;;;2109872;28;20023;-76
2023/11/03 00:52:48;;;;;;;5.72;2.00;;;11.70;99.90;;;;;;2103230;28;20086;-75
2023/11/03 00:53:49;;;;;;;5.07;1.60;;;11.70;99.90;;;;;;2103355;28;20017;-75
2023/11/03 00:54:50;;;;;;;3.00;1.10;;;11.60;99.90;;;;;;2106471;28;20050;-74
2023/11/03 00:55:51;;;;;;;2.92;1.00;;;11.70;99.90;;;;;;2107087;28;20032;-76
2023/11/03 00:56:51;;;;;;;5.35;1.50;;;11.60;99.90;;;;;;2099148;28;20373;-77
2023/11/03 00:57:52;;;;;;;3.28;0.80;;;11.60;99.90;;;;;;2099270;28;20032;-77
2023/11/03 00:58:52;;;;;;;6.03;1.40;;;11.60;99.90;;;;;;2106313;28;20023;-77
2023/11/03 00:59:54;;;;;;;4.35;1.15;;;11.60;99.90;;;;;;2107246;28;20491;-76
2023/11/03 01:00:55;;;;;;;2.92;0.90;;;11.60;99.90;;;;;;2108510;28;20015;-76
2023/11/03 01:01:56;;;;;;;3.50;1.00;;;11.60;99.90;;;;;;2108014;28;20456;-76
2023/11/03 01:02:57;;;;;;;5.38;1.05;;;11.60;99.90;;;;;;2107164;28;20016;-76
2023/11/03 01:03:58;;;;;;;4.05;1.10;;;11.60;99.90;;;;;;2107772;28;20375;-75
2023/11/03 01:04:58;;;;;;;3.05;0.77;;;11.60;99.90;;;;;;2099655;28;20024;-74
2023/11/03 01:05:59;;;;;;;2.70;0.98;;;11.60;99.90;;;;;;2092697;28;20072;-75
2023/11/03 01:06:59;;;;;;;2.10;1.13;;;11.60;99.90;;;;;;2099380;28;20073;-75
2023/11/03 01:08:00;;;;;;;2.72;1.00;;;11.60;99.90;;;;;;2099945;28;20027;-75
2023/11/03 01:09:01;;;;;;;2.88;0.95;;;11.60;99.90;;;;;;2100788;28;20024;-74
2023/11/03 01:10:02;;;;;;;3.63;1.00;;;11.60;99.90;;;;;;2107050;28;20566;-75
2023/11/03 01:11:03;;;;;;;3.88;1.10;;;11.60;99.90;;;;;;2106693;28;20024;-76
2023/11/03 01:12:04;;;;;;;2.70;0.73;;;11.60;99.90;;;;;;2108478;28;20020;-75
2023/11/03 01:13:09;;;;;;;2.22;0.63;;;11.60;99.90;;;;;;2106787;28;20024;-76
2023/11/03 01:14:10;;;;;;;4.70;1.30;;;11.60;99.90;;;;;;2101840;28;20107;-75
2023/11/03 01:15:12;;;;;;;4.93;0.90;;;11.60;99.90;;;;;;2100843;28;20020;-75
2023/11/03 01:16:13;;;;;;;2.25;0.88;;;11.60;99.90;;;;;;2109069;28;20016;-76
2023/11/03 01:17:16;;;;;;;3.05;0.98;;;11.60;99.90;;;;;;2107681;28;20114;-76
2023/11/03 01:18:19;;;;;;;2.88;0.77;;;11.60;99.90;;;;;;2102596;28;20024;-75
2023/11/03 01:19:21;;;;;;;3.05;0.90;;;11.60;99.90;;;;;;2101840;28;20028;-75
2023/11/03 01:20:27;;;;;;;5.47;1.10;;;11.60;99.90;;;;;;2107007;28;20040;-76
2023/11/03 01:21:28;;;;;;;2.80;1.08;;;11.60;99.90;;;;;;2108317;28;20027;-76
2023/11/03 01:22:29;;;;;;;4.70;1.20;;;11.60;99.90;;;;;;2100222;28;20028;-76
2023/11/03 01:23:32;;;;;;;2.83;0.73;;;11.60;99.90;;;;;;2089164;28;20025;-75
2023/11/03 01:24:33;;;;;;;2.40;0.98;;;11.60;99.90;;;;;;2102231;28;20027;-76
2023/11/03 01:25:34;;;;;;;2.97;0.77;;;11.60;99.90;;;;;;2100898;28;20028;-76
2023/11/03 01:26:34;;;;;;;5.35;1.23;;;11.60;99.90;;;;;;2099554;28;20024;-75
2023/11/03 01:27:35;;;;;;;2.08;0.80;;;11.60;99.90;;;;;;2107447;28;20058;-76
2023/11/03 01:28:36;;;;;;;4.00;0.90;;;11.60;99.90;;;;;;2099518;28;20032;-78
2023/11/03 01:29:37;;;;;;;7.05;0.95;;;11.60;99.90;;;;;;2099709;28;20024;-75
2023/11/03 01:30:39;;;;;;;2.85;1.02;;;11.60;99.90;;;;;;2107019;28;20467;-76
2023/11/03 01:31:39;;;;;;;4.38;0.90;;;11.60;99.90;;;;;;2100920;28;20099;-76
2023/11/03 01:32:40;;;;;;;4.88;1.08;;;11.60;99.90;;;;;;2100960;28;20471;-75
2023/11/03 01:33:41;;;;;;;1.65;0.80;;;11.60;99.90;;;;;;2109123;28;20028;-76
2023/11/03 01:34:42;;;;;;;4.07;0.95;;;11.60;99.90;;;;;;2108385;28;20051;-75
2023/11/03 01:35:42;;;;;;;2.88;0.82;;;11.60;99.90;;;;;;2106414;28;20028;-77
2023/11/03 01:36:43;;;;;;;2.15;0.90;;;11.60;99.90;;;;;;2106399;28;20024;-75
2023/11/03 01:37:45;;;;;;;4.03;0.80;;;11.60;99.90;;;;;;2107315;28;20028;-76
2023/11/03 01:38:48;;;;;;;1.38;0.70;;;11.60;99.90;;;;;;2098476;28;20063;-76
2023/11/03 01:39:50;;;;;;;5.65;1.35;;;11.60;99.90;;;;;;2096217;28;20020;-75
2023/11/03 01:40:51;;;;;;;2.35;0.68;;;11.60;99.90;;;;;;2107603;28;20028;-76
2023/11/03 01:41:52;;;;;;;1.65;0.77;;;11.60;99.90;;;;;;2106892;28;20051;-76
2023/11/03 01:42:53;;;;;;;4.43;1.30;;;11.60;99.90;;;;;;2106753;28;20023;-74
2023/11/03 01:44:06;;;;;;;4.20;0.98;;;11.60;99.90;;;;;;2105691;28;20051;-76
2023/11/03 01:45:07;;;;;;;4.45;1.00;;;11.60;99.90;;;;;;2100272;28;20059;-75
2023/11/03 01:46:07;;;;;;;3.38;0.93;;;11.60;99.90;;;;;;2098426;28;20020;-75
2023/11/03 01:47:08;;;;;;;2.33;0.73;;;11.60;99.90;;;;;;2107917;28;20035;-75
2023/11/03 01:48:08;;;;;;;2.42;0.98;;;11.60;99.90;;;;;;2108365;28;20030;-75
2023/11/03 01:49:11;;;;;;;3.55;1.10;;;11.60;99.90;;;;;;2108772;28;20020;-74
2023/11/03 01:50:12;;;;;;;2.58;0.85;;;11.60;99.90;;;;;;2106914;28;20027;-75
2023/11/03 01:51:13;;;;;;;3.05;0.98;;;11.60;99.90;;;;;;2107358;28;20529;-76
2023/11/03 01:52:15;;;;;;;3.50;1.23;;;11.60;99.90;;;;;;2107800;28;20677;-76
2023/11/03 01:53:17;;;;;;;2.92;1.10;;;11.60;99.90;;;;;;2099846;28;20024;-75
2023/11/03 01:54:17;;;;;;;1.75;0.90;;;11.60;99.90;;;;;;2099793;28;20859;-75
2023/11/03 01:55:19;;;;;;;4.13;1.02;;;11.60;99.90;;;;;;2107051;28;20441;-76
2023/11/03 01:56:20;;;;;;;2.72;1.02;;;11.60;99.90;;;;;;2099346;28;20028;-76
2023/11/03 01:57:21;;;;;;;2.92;0.82;;;11.60;99.90;;;;;;2097551;28;20033;-76
2023/11/03 01:58:23;;;;;;;1.30;0.80;;;11.70;99.90;;;;;;2106955;28;20032;-76
2023/11/03 01:59:24;;;;;;;3.20;0.80;;;11.70;99.90;;;;;;2102886;28;20023;-76
2023/11/03 02:00:25;;;;;;;2.70;0.95;;;11.70;99.90;;;;;;2101969;28;20023;-76
2023/11/03 02:01:27;;;;;;;2.67;0.70;;;11.70;99.90;;;;;;2098761;28;20449;-76
2023/11/03 02:02:28;;;;;;;2.45;0.82;;;11.70;99.90;;;;;;2098716;28;20032;-76
2023/11/03 02:03:28;;;;;;;2.25;0.73;;;11.70;99.90;;;;;;2106802;28;20081;-77
2023/11/03 02:04:29;;;;;;;2.95;0.90;;;11.70;99.90;;;;;;2107885;28;20028;-76
2023/11/03 02:05:30;;;;;;;3.22;1.10;;;11.70;99.90;;;;;;2105840;28;20307;-76
2023/11/03 02:06:30;;;;;;;5.57;0.93;;;11.70;99.90;;;;;;2106378;28;20061;-75
2023/11/03 02:07:31;;;;;;;3.80;0.80;;;11.70;99.90;;;;;;2106856;28;20031;-76
2023/11/03 02:08:32;;;;;;;1.92;0.90;;;11.70;99.90;;;;;;2108141;28;20027;-76
2023/11/03 02:09:33;;;;;;;6.05;1.50;;;11.70;99.90;;;;;;2107165;28;20028;-75
2023/11/03 02:10:33;;;;;;;3.47;0.93;;;11.70;99.90;;;;;;2099252;28;20040;-77
2023/11/03 02:11:34;;;;;;;1.60;0.75;;;11.70;99.90;;;;;;2094417;28;20082;-77
2023/11/03 02:12:34;;;;;;;3.13;1.60;;;11.70;99.90;;;;;;2095999;28;20123;-76
2023/11/03 02:13:35;;;;;;;3.88;1.10;;;11.70;99.90;;;;;;2099888;28;20036;-77
2023/11/03 02:14:36;;;;;;;3.40;0.98;;;11.70;99.90;;;;;;2108462;28;20420;-76
2023/11/03 02:15:39;;;;;;;2.78;0.90;;;11.70;99.90;;;;;;2108367;28;20374;-76
2023/11/03 02:16:39;;;;;;;3.03;1.05;;;11.70;99.90;;;;;;2106820;28;20052;-75
2023/11/03 02:17:40;;;;;;;3.13;1.33;;;11.70;99.90;;;;;;2107109;28;20051;-76
2023/11/03 02:18:41;;;;;;;2.22;0.98;;;11.70;99.90;;;;;;2100475;28;20791;-74
2023/11/03 02:19:42;;;;;;;3.78;1.00;;;11.70;99.90;;;;;;2099980;28;20549;-76
2023/11/03 02:20:43;;;;;;;2.65;1.05;;;11.80;99.90;;;;;;2106594;28;20069;-76
2023/11/03 02:21:44;;;;;;;2.80;0.70;;;11.80;99.90;;;;;;2106328;28;20026;-75
2023/11/03 02:22:44;;;;;;;2.83;1.00;;;11.70;99.90;;;;;;2106275;28;20031;-76
2023/11/03 02:23:45;;;;;;;4.32;1.10;;;11.70;99.90;;;;;;2106701;28;20060;-76
2023/11/03 02:24:46;;;;;;;2.47;0.88;;;11.70;99.90;;;;;;2106859;28;20020;-75
2023/11/03 02:25:46;;;;;;;3.53;1.00;;;11.70;99.90;;;;;;2106168;28;20063;-74
2023/11/03 02:26:47;;;;;;;1.98;0.85;;;11.70;99.90;;;;;;2106070;28;20024;-74
2023/11/03 02:27:49;;;;;;;2.13;0.95;;;11.70;99.90;;;;;;2106796;28;20414;-75
2023/11/03 02:28:50;;;;;;;2.45;0.90;;;11.70;99.90;;;;;;2105772;28;20046;-76
2023/11/03 02:29:50;;;;;;;3.85;1.05;;;11.70;99.90;;;;;;2107008;28;20035;-76
2023/11/03 02:30:51;;;;;;;2.60;0.65;;;11.70;99.90;;;;;;2108134;28;20089;-75
2023/11/03 02:31:51;;;;;;;3.30;0.90;;;11.70;99.90;;;;;;2105073;28;20082;-75
2023/11/03 02:32:52;;;;;;;3.58;1.10;;;11.70;99.90;;;;;;2107801;28;20066;-76
2023/11/03 02:33:53;;;;;;;2.70;0.90;;;11.70;99.90;;;;;;2104662;28;20032;-76
2023/11/03 02:34:53;;;;;;;3.42;0.93;;;11.70;99.90;;;;;;2105698;28;20024;-75
2023/11/03 02:35:54;;;;;;;2.85;1.00;;;11.70;99.90;;;;;;2107039;28;20028;-73
2023/11/03 02:36:54;;;;;;;3.25;1.23;;;11.70;99.90;;;;;;2100065;28;20036;-75
2023/11/03 02:37:55;;;;;;;2.03;0.65;;;11.70;99.90;;;;;;2099558;28;20025;-76
2023/11/03 02:38:56;;;;;;;4.35;0.85;;;11.70;99.90;;;;;;2108744;28;20020;-76
2023/11/03 02:39:57;;;;;;;1.73;0.65;;;11.70;99.90;;;;;;2106846;28;20027;-75
2023/11/03 02:40:58;;;;;;;1.50;0.80;;;11.70;99.90;;;;;;2104511;28;20024;-75
2023/11/03 02:41:58;;;;;;;3.60;0.90;;;11.70;99.90;;;;;;2109405;28;20043;-76
2023/11/03 02:42:59;;;;;;;1.52;0.70;;;11.70;99.90;;;;;;2106420;28;20055;-75
2023/11/03 02:43:59;;;;;;;3.33;0.80;;;11.70;99.90;;;;;;2105186;28;20024;-76
2023/11/03 02:45:01;;;;;;;3.33;1.00;;;11.70;99.90;;;;;;2105787;28;20019;-76
2023/11/03 02:46:04;;;;;;;3.70;0.90;;;11.70;99.90;;;;;;2105644;28;20024;-75
2023/11/03 02:47:04;;;;;;;4.00;0.90;;;11.70;99.90;;;;;;2098709;28;20430;-74
2023/11/03 02:48:05;;;;;;;2.65;0.70;;;11.70;99.90;;;;;;2099525;28;20449;-75
2023/11/03 02:49:06;;;;;;;3.55;1.05;;;11.70;99.90;;;;;;2106599;28;20020;-75
2023/11/03 02:50:07;;;;;;;2.28;0.77;;;11.70;99.90;;;;;;2107798;28;20032;-76
2023/11/03 02:51:08;;;;;;;2.38;0.60;;;11.70;99.90;;;;;;2107846;28;20390;-76
2023/11/03 02:52:08;;;;;;;2.70;0.93;;;11.70;99.90;;;;;;2108327;28;20085;-76
2023/11/03 02:53:09;;;;;;;3.17;0.93;;;11.70;99.90;;;;;;2108445;28;20057;-76
2023/11/03 02:54:11;;;;;;;4.15;0.80;;;11.70;99.90;;;;;;2108565;28;20042;-76
2023/11/03 02:55:11;;;;;;;3.00;0.80;;;11.70;99.90;;;;;;2110425;28;20024;-76
2023/11/03 02:56:21;;;;;;;2.95;1.02;;;11.70;99.90;;;;;;2109442;28;20038;-75
2023/11/03 02:57:22;;;;;;;;;;;11.70;99.90;;;;;;2108785;28;20101;-76
2023/11/03 02:58:27;;;;;;;2.13;0.65;;;11.60;99.90;;;;;;2109395;28;19908;-76
2023/11/03 02:59:27;;;;;;;1.90;0.77;;;11.70;99.90;;;;;;2107369;28;20073;-77
2023/11/03 03:00:29;;;;;;;2.63;1.10;;;11.60;99.90;;;;;;2108320;28;20169;-75
2023/11/03 03:01:32;;;;;;;2.28;1.00;;;11.60;99.90;;;;;;2106819;28;20050;-77
2023/11/03 03:02:32;;;;;;;5.50;1.08;;;11.70;99.90;;;;;;2107963;28;20463;-76
2023/11/03 03:03:33;;;;;;;3.13;0.70;;;11.70;99.90;;;;;;2106006;28;20550;-75
2023/11/03 03:04:33;;;;;;;3.42;1.00;;;11.70;99.90;;;;;;2107684;28;20031;-76
2023/11/03 03:05:36;;;;;;;2.42;1.15;;;11.70;99.90;;;;;;2102151;28;20020;-75
2023/11/03 03:06:36;;;;;;;4.40;0.80;;;11.70;99.90;;;;;;2104352;28;20479;-76
2023/11/03 03:07:38;;;;;;;8.05;1.15;;;11.70;99.90;;;;;;2109628;28;20463;-74
2023/11/03 03:08:38;;;;;;;3.17;1.00;;;11.70;99.90;;;;;;2102439;28;21298;-74
2023/11/03 03:09:39;;;;;;;3.35;1.30;;;11.70;99.90;;;;;;2104763;28;20059;-76
2023/11/03 03:10:39;;;;;;;2.88;0.95;;;11.70;99.90;;;;;;2109120;28;20035;-76
2023/11/03 03:11:40;;;;;;;3.60;0.82;;;11.70;99.90;;;;;;2109378;28;20043;-77
2023/11/03 03:12:41;;;;;;;2.22;0.75;;;11.70;99.90;;;;;;2107894;28;20110;-75
2023/11/03 03:13:43;;;;;;;1.77;0.60;;;11.70;99.90;;;;;;2098049;28;20545;-76
2023/11/03 03:14:43;;;;;;;2.15;0.85;;;11.70;99.90;;;;;;2100276;28;20025;-76
2023/11/03 03:15:44;;;;;;;2.25;0.70;;;11.70;99.90;;;;;;2107536;28;20036;-76
2023/11/03 03:16:45;;;;;;;2.72;0.90;;;11.60;99.90;;;;;;2108122;28;20032;-75
2023/11/03 03:17:45;;;;;;;2.40;0.85;;;11.70;99.90;;;;;;2109394;28;20027;-75
2023/11/03 03:18:46;;;;;;;2.58;0.85;;;11.70;99.90;;;;;;2108615;28;20107;-76
2023/11/03 03:19:47;;;;;;;3.67;0.90;;;11.70;99.90;;;;;;2108023;28;20035;-76
2023/11/03 03:20:48;;;;;;;3.35;0.95;;;11.70;99.90;;;;;;2107893;28;20020;-75
2023/11/03 03:21:48;;;;;;;3.03;1.23;;;11.70;99.90;;;;;;2108871;28;20024;-77
2023/11/03 03:22:49;;;;;;;4.82;0.90;;;11.70;99.90;;;;;;2107841;28;20024;-75
2023/11/03 03:23:49;;;;;;;2.63;0.90;;;11.70;99.90;;;;;;2109153;28;20024;-76
2023/11/03 03:24:50;;;;;;;1.58;0.60;;;11.70;99.90;;;;;;2097902;28;20025;-77
2023/11/03 03:25:50;;;;;;;2.72;0.82;;;11.70;99.90;;;;;;2097300;28;20114;-75
2023/11/03 03:26:52;;;;;;;2.25;0.95;;;11.70;99.90;;;;;;2106187;28;20674;-75
2023/11/03 03:27:53;;;;;;;1.70;0.68;;;11.70;99.90;;;;;;2106589;28;20030;-77
2023/11/03 03:28:53;;;;;;;2.75;1.00;;;11.70;99.90;;;;;;2106720;28;20020;-77
2023/11/03 03:29:54;;;;;;;4.10;0.90;;;11.70;99.90;;;;;;2107828;28;20028;-76
2023/11/03 03:30:54;;;;;;;2.40;1.10;;;11.70;99.90;;;;;;2108308;28;20116;-76
2023/11/03 03:31:55;;;;;;;3.03;0.60;;;11.70;99.90;;;;;;2107467;28;20028;-76
2023/11/03 03:32:55;;;;;;;1.08;0.55;;;11.70;99.90;;;;;;2108908;28;20044;-76
2023/11/03 03:33:56;;;;;;;2.70;0.80;;;11.60;99.90;;;;;;2107680;28;20032;-76
2023/11/03 03:34:57;;;;;;;1.98;0.95;;;11.70;99.90;;;;;;2107084;28;20568;-75
2023/11/03 03:35:57;;;;;;;2.60;0.73;;;11.70;99.90;;;;;;2108540;28;20034;-75
2023/11/03 03:36:59;;;;;;;1.65;0.90;;;11.60;99.90;;;;;;2102755;28;20028;-76
2023/11/03 03:38:00;;;;;;;4.80;1.45;;;11.70;99.90;;;;;;2094154;28;20119;-75
2023/11/03 03:39:00;;;;;;;2.33;0.93;;;11.60;99.90;;;;;;2102519;28;20048;-75
2023/11/03 03:40:01;;;;;;;3.35;0.98;;;11.60;99.90;;;;;;2108745;28;20500;-76
2023/11/03 03:41:02;;;;;;;5.68;1.10;;;11.60;99.90;;;;;;2110085;28;20036;-75
2023/11/03 03:42:02;;;;;;;4.22;0.88;;;11.60;99.90;;;;;;2104342;28;20035;-75
2023/11/03 03:43:03;;;;;;;6.18;1.40;;;11.60;99.90;;;;;;2103705;28;20032;-75
2023/11/03 03:44:03;;;;;;;4.40;1.00;;;11.60;99.90;;;;;;2102345;28;20027;-74
2023/11/03 03:45:04;;;;;;;4.93;1.02;;;11.60;99.90;;;;;;2101379;28;20027;-76
2023/11/03 03:46:05;;;;;;;3.63;1.30;;;11.60;99.90;;;;;;2103784;28;20049;-75
2023/11/03 03:47:07;;;;;;;3.42;1.27;;;11.60;99.90;;;;;;2103403;28;20074;-77
2023/11/03 03:48:07;;;;;;;5.25;1.00;;;11.60;99.90;;;;;;2107717;28;20028;-75
2023/11/03 03:49:08;;;;;;;3.20;1.05;;;11.60;99.90;;;;;;2107672;28;20028;-76
2023/11/03 03:50:09;;;;;;;3.20;0.90;;;11.60;99.90;;;;;;2109353;28;20070;-75
2023/11/03 03:51:10;;;;;;;4.40;1.10;;;11.60;99.90;;;;;;2107530;28;20148;-75
2023/11/03 03:52:10;;;;;;;2.88;1.63;;;11.60;99.90;;;;;;2107574;28;20032;-76
2023/11/03 03:53:11;;;;;;;3.53;0.93;;;11.70;99.90;;;;;;2108557;28;20100;-74
2023/11/03 03:54:11;;;;;;;4.32;0.80;;;11.60;99.90;;;;;;2106508;28;20019;-75
2023/11/03 03:55:12;;;;;;;2.40;0.80;;;11.60;99.90;;;;;;2108040;28;20108;-75
2023/11/03 03:56:13;;;;;;;3.33;0.95;;;11.60;99.90;;;;;;2108395;28;20046;-75
2023/11/03 03:57:13;;;;;;;5.78;1.08;;;11.60;99.90;;;;;;2110482;28;20106;-76
2023/11/03 03:58:14;;;;;;;4.13;0.95;;;11.60;99.90;;;;;;2107602;28;20036;-75
2023/11/03 03:59:14;;;;;;;3.97;1.15;;;11.60;99.90;;;;;;2101422;28;20056;-76
2023/11/03 04:00:16;;;;;;;4.57;1.10;;;11.60;99.90;;;;;;2093283;28;20098;-76
2023/11/03 04:01:16;;;;;;;2.70;0.88;;;11.60;99.90;;;;;;2100035;28;20107;-75
2023/11/03 04:02:17;;;;;;;2.33;0.70;;;11.60;99.90;;;;;;2108272;28;20038;-77
2023/11/03 04:03:18;;;;;;;2.30;1.08;;;11.60;99.90;;;;;;2106809;28;20062;-75
2023/11/03 04:04:19;;;;;;;2.40;0.82;;;11.60;99.90;;;;;;2108446;28;20058;-77
2023/11/03 04:05:19;;;;;;;4.63;1.23;;;11.60;99.90;;;;;;2105909;28;20016;-77
2023/11/03 04:06:20;;;;;;;3.65;1.27;;;11.60;99.90;;;;;;2107611;28;20028;-76
2023/11/03 04:07:20;;;;;;;6.57;1.55;;;11.60;99.90;;;;;;2109299;28;20131;-75
2023/11/03 04:08:21;;;;;;;3.20;1.10;;;11.60;99.90;;;;;;2108935;28;20028;-76
2023/11/03 04:09:22;;;;;;;3.22;0.80;;;11.60;99.90;;;;;;2108499;28;20482;-77
2023/11/03 04:10:23;;;;;;;3.50;1.27;;;11.60;99.90;;;;;;2109049;28;20032;-77
2023/11/03 04:11:23;;;;;;;3.78;1.00;;;11.60;99.90;;;;;;2107532;28;20024;-76
2023/11/03 04:12:24;;;;;;;4.60;1.17;;;11.60;99.90;;;;;;2107730;28;20032;-74
2023/11/03 04:13:24;;;;;;;3.15;1.20;;;11.60;99.90;;;;;;2100522;28;20027;-76
2023/11/03 04:14:25;;;;;;;3.72;1.00;;;11.60;99.90;;;;;;2099530;28;20052;-77
2023/11/03 04:15:26;;;;;;;4.50;1.40;;;11.60;99.90;;;;;;2107080;28;20028;-76
2023/11/03 04:16:36;;;;;;;5.53;1.40;;;11.60;99.90;;;;;;2109467;28;20024;-75
2023/11/03 04:17:37;;;;;;;2.70;0.98;;;11.60;99.90;;;;;;2107954;28;20109;-76
2023/11/03 04:18:39;;;;;;;4.75;1.17;;;11.60;99.90;;;;;;2108256;28;20032;-75
2023/11/03 04:19:40;;;;;;;2.33;0.80;;;11.60;99.90;;;;;;2105472;28;20024;-74
2023/11/03 04:20:41;;;;;;;4.63;1.05;;;11.50;99.90;;;;;;2104216;28;20055;-75
2023/11/03 04:21:42;;;;;;;6.07;1.30;;;11.50;99.90;;;;;;2108176;28;20027;-76
2023/11/03 04:22:43;;;;;;;5.43;1.35;;;11.50;99.90;;;;;;2110039;28;20028;-75
2023/11/03 04:23:43;;;;;;;3.60;1.30;;;11.50;99.90;;;;;;2108643;28;20028;-73
2023/11/03 04:24:44;;;;;;;3.95;1.35;;;11.50;99.90;;;;;;2109374;28;20077;-77
2023/11/03 04:25:44;;;;;;;3.13;1.10;;;11.50;99.90;;;;;;2107738;28;20034;-76
2023/11/03 04:26:46;;;;;;;9.10;1.92;;;11.50;99.90;;;;;;2108824;28;20020;-76
2023/11/03 04:27:46;;;;;;;4.97;1.13;;;11.50;99.90;;;;;;2107711;28;20027;-75
2023/11/03 04:28:47;;;;;;;4.85;1.30;;;11.50;99.90;;;;;;2103217;28;20024;-77
2023/11/03 04:29:47;;;;;;;2.92;0.93;;;11.50;99.90;;;;;;2104007;28;20434;-77
2023/11/03 04:30:49;;;;;;;3.58;1.30;;;11.50;99.90;;;;;;2109075;28;20027;-76
2023/11/03 04:31:50;;;;;;;5.35;1.10;;;11.50;99.90;;;;;;2108357;28;20031;-76
2023/11/03 04:32:51;;;;;;;3.10;0.90;;;11.50;99.90;;;;;;2110953;28;20488;-76
2023/11/03 04:33:52;;;;;;;3.55;1.20;;;11.50;99.90;;;;;;2108189;28;20534;-76
2023/11/03 04:34:53;;;;;;;3.85;1.20;;;11.50;99.90;;;;;;2106467;28;20379;-75
2023/11/03 04:35:53;;;;;;;6.32;1.23;;;11.50;99.90;;;;;;2103381;28;20032;-75
2023/11/03 04:36:54;;;;;;;3.92;1.20;;;11.50;99.90;;;;;;2103207;28;20020;-76
2023/11/03 04:37:54;;;;;;;4.47;1.05;;;11.50;99.90;;;;;;2108080;28;20035;-76
2023/11/03 04:38:55;;;;;;;5.00;1.33;;;11.50;99.90;;;;;;2102727;28;20047;-75
2023/11/03 04:39:56;;;;;;;4.95;0.95;;;11.50;99.90;;;;;;2094128;28;20115;-77
2023/11/03 04:40:56;;;;;;;6.03;1.27;;;11.50;99.90;;;;;;2103721;28;20028;-77
2023/11/03 04:41:57;;;;;;;4.10;1.23;;;11.50;99.90;;;;;;2108639;28;20043;-75
2023/11/03 04:42:57;;;;;;;3.83;1.48;;;11.50;99.90;;;;;;2107134;28;20028;-76
2023/11/03 04:43:58;;;;;;;5.78;1.67;;;11.50;99.90;;;;;;2106988;28;20024;-76
2023/11/03 04:44:58;;;;;;;4.03;1.27;;;11.50;99.90;;;;;;2108720;28;20067;-73
2023/11/03 04:45:59;;;;;;;4.88;1.45;;;11.50;99.90;;;;;;2106546;28;20031;-76
2023/11/03 04:46:59;;;;;;;4.00;1.25;;;11.50;99.90;;;;;;2107442;28;20032;-75
2023/11/03 04:48:01;;;;;;;3.63;1.50;;;11.50;99.90;;;;;;2108072;28;20471;-76
2023/11/03 04:49:02;;;;;;;4.40;1.35;;;11.50;99.90;;;;;;2097874;28;20024;-76
2023/11/03 04:50:04;;;;;;;4.30;1.40;;;11.50;99.90;;;;;;2099953;28;20040;-76
2023/11/03 04:51:08;;;;;;;5.15;1.30;;;11.50;99.90;;;;;;2101845;28;20219;-75
2023/11/03 04:52:08;;;;;;;3.90;1.00;;;11.50;99.90;;;;;;2094672;28;20028;-74
2023/11/03 04:53:09;;;;;;;4.70;1.30;;;11.50;99.90;;;;;;2102260;28;20030;-76
2023/11/03 04:54:10;;;;;;;4.65;1.30;;;11.50;99.90;;;;;;2108010;28;20065;-76
2023/11/03 04:55:11;;;;;;;5.07;1.60;;;11.50;99.90;;;;;;2107900;27;20059;-76
2023/11/03 04:56:12;;;;;;;6.68;1.70;;;11.50;99.90;;;;;;2106552;28;20467;-77
2023/11/03 04:57:12;;;;;;;4.85;1.40;;;11.50;99.90;;;;;;2108312;28;20050;-76
2023/11/03 04:58:15;;;;;;;10.52;1.83;;;11.40;99.90;;;;;;2107161;28;20035;-77
2023/11/03 04:59:16;;;;;;;10.07;1.67;;;11.40;99.90;;;;;;2108645;28;20374;-76
2023/11/03 05:00:17;;;;;;;5.32;1.58;;;11.40;99.90;;;;;;2106913;28;20027;-76
2023/11/03 05:01:20;;;;;;;4.28;1.50;;;11.40;99.90;;;;;;2109701;28;20012;-76
2023/11/03 05:02:20;;;;;;;6.20;1.55;;;11.40;99.90;;;;;;2107571;28;20082;-78
2023/11/03 05:03:21;;;;;;;6.22;1.50;;;11.40;99.90;;;;;;2109345;28;20024;-76
2023/11/03 05:04:22;;;;;;;3.83;1.40;;;11.40;99.90;;;;;;2099541;28;20032;-76
2023/11/03 05:05:22;;;;;;;4.90;1.17;;;11.40;99.90;;;;;;2091625;28;20135;-76
2023/11/03 05:06:23;;;;;;;6.63;1.42;;;11.40;99.90;;;;;;2099112;28;20020;-77
2023/11/03 05:07:23;;;;;;;5.80;1.30;;;11.40;99.90;;;;;;2106696;28;20063;-76
2023/11/03 05:08:24;;;;;;;7.47;1.92;;;11.40;99.90;;;;;;2109096;28;20378;-75
2023/11/03 05:09:25;;;;;;;5.40;1.50;;;11.40;99.90;;;;;;2107381;28;20816;-75
2023/11/03 05:10:25;;;;;;;8.15;2.10;;;11.40;99.90;;;;;;2108218;28;20049;-74
2023/11/03 05:11:27;;;;;;;5.97;1.30;;;11.40;99.90;;;;;;2107145;28;20042;-75
2023/11/03 05:12:28;;;;;;;10.20;2.00;;;11.40;99.90;;;;;;2106414;28;20119;-76
2023/11/03 05:13:28;;;;;;;5.15;1.70;;;11.40;99.90;;;;;;2107179;28;20027;-76
2023/11/03 05:14:30;;;;;;;4.22;1.30;;;11.40;99.90;;;;;;2101523;28;20402;-77
2023/11/03 05:15:31;;;;;;;7.00;2.25;;;11.40;99.90;;;;;;2100609;28;20074;-76
2023/11/03 05:16:31;;;;;;;8.88;1.95;;;11.40;99.90;;;;;;2106512;28;20024;-76
2023/11/03 05:17:32;;;;;;;6.25;1.70;;;11.40;99.90;;;;;;2105868;28;20602;-76
2023/11/03 05:18:34;;;;;;;5.63;1.40;;;11.40;99.90;;;;;;2108169;28;20028;-77